Time;durP1;ratioP1;P1;durP2;ratioP2;P2;SDS_P1;SDS_P2;PMS_P1;PMS_P2;Temp;Humidity;BMP_temperature;BMP_pressure;BME280_temperature;BME280_humidity;BME280_pressure;Samples;Min_cycle;Max_cycle;Signal;HPM_P1;HPM_P2
2022/01/29 00:00:49;;;;;;;8.45;3.83;;;7.40;99.90;;;;;;5014237;28;20116;-83
2022/01/29 00:03:14;;;;;;;6.78;2.45;;;7.40;99.90;;;;;;4990174;28;20128;-83
2022/01/29 00:05:40;;;;;;;8.60;3.75;;;7.40;99.90;;;;;;5002575;28;20038;-83
2022/01/29 00:08:06;;;;;;;16.52;3.90;;;7.50;99.90;;;;;;5005798;28;20532;-83
2022/01/29 00:10:32;;;;;;;8.50;3.55;;;7.50;99.90;;;;;;5006929;28;20045;-82
2022/01/29 00:12:58;;;;;;;25.33;6.85;;;7.50;99.90;;;;;;5003952;28;20120;-83
2022/01/29 00:15:24;;;;;;;15.93;3.03;;;7.50;99.90;;;;;;5006747;28;20515;-83
2022/01/29 00:17:50;;;;;;;4.82;3.58;;;7.50;99.90;;;;;;4989627;28;20050;-83
2022/01/29 00:20:15;;;;;;;9.85;3.20;;;7.50;99.90;;;;;;4992249;28;20122;-83
2022/01/29 00:22:41;;;;;;;9.52;4.72;;;7.50;99.90;;;;;;4992369;28;20114;-83
2022/01/29 00:25:09;;;;;;;9.93;4.07;;;7.50;99.90;;;;;;5008406;28;20041;-83
2022/01/29 00:27:36;;;;;;;9.65;4.20;;;7.50;99.90;;;;;;5009185;28;20071;-83
2022/01/29 00:30:07;;;;;;;18.98;10.88;;;7.50;99.90;;;;;;4992042;28;20125;-83
2022/01/29 00:32:33;;;;;;;6.50;3.85;;;7.50;99.90;;;;;;4993113;28;20045;-83
2022/01/29 00:34:58;;;;;;;8.85;4.47;;;7.40;99.90;;;;;;5006542;28;20450;-83
2022/01/29 00:37:24;;;;;;;9.13;4.53;;;7.40;99.90;;;;;;4989696;28;20042;-83
2022/01/29 00:39:50;;;;;;;12.90;4.10;;;7.40;99.90;;;;;;4993211;28;20034;-83
2022/01/29 00:42:16;;;;;;;14.65;7.18;;;7.40;99.90;;;;;;5011491;28;20142;-83
2022/01/29 00:44:41;;;;;;;10.23;5.60;;;7.40;99.90;;;;;;4992454;28;20180;-83
2022/01/29 00:47:07;;;;;;;5.65;2.83;;;7.40;99.90;;;;;;5008401;28;20041;-83
2022/01/29 00:49:34;;;;;;;16.52;5.38;;;7.40;99.90;;;;;;5028629;28;20065;-83
2022/01/29 00:52:00;;;;;;;20.67;7.13;;;7.40;99.90;;;;;;4992503;28;20053;-83
2022/01/29 00:54:26;;;;;;;16.55;4.63;;;7.40;99.90;;;;;;4991190;28;20417;-83
2022/01/29 00:56:51;;;;;;;10.98;6.75;;;7.40;99.90;;;;;;5009158;28;20518;-83
2022/01/29 00:59:17;;;;;;;22.23;6.93;;;7.50;99.90;;;;;;5005653;28;20061;-83
2022/01/29 01:01:42;;;;;;;29.50;7.97;;;7.50;99.90;;;;;;5008179;28;20056;-83
2022/01/29 01:04:08;;;;;;;7.65;3.72;;;7.50;99.90;;;;;;4993433;28;20558;-83
2022/01/29 01:06:34;;;;;;;15.80;4.13;;;7.50;99.90;;;;;;5009132;28;20080;-83
2022/01/29 01:08:59;;;;;;;9.77;3.50;;;7.50;99.90;;;;;;5001696;28;20053;-83
2022/01/29 01:11:25;;;;;;;12.57;5.85;;;7.50;99.90;;;;;;5009226;28;20049;-83
2022/01/29 01:13:50;;;;;;;24.77;9.15;;;7.50;99.90;;;;;;5009252;28;20048;-83
2022/01/29 01:16:16;;;;;;;20.80;7.07;;;7.60;99.90;;;;;;5008846;28;20053;-83
2022/01/29 01:18:42;;;;;;;17.85;7.93;;;7.50;99.90;;;;;;5001240;28;20068;-83
2022/01/29 01:21:07;;;;;;;15.32;6.32;;;7.50;99.90;;;;;;5001967;28;20058;-83
2022/01/29 01:23:33;;;;;;;15.07;6.47;;;7.60;99.90;;;;;;5016383;28;20565;-83
2022/01/29 01:26:01;;;;;;;16.42;8.45;;;7.60;99.90;;;;;;4993628;28;20240;-83
2022/01/29 01:28:27;;;;;;;11.30;6.20;;;7.60;99.90;;;;;;5007670;28;20050;-83
2022/01/29 01:30:53;;;;;;;15.75;7.25;;;7.60;99.90;;;;;;5007661;28;20049;-83
2022/01/29 01:33:18;;;;;;;8.35;4.63;;;7.70;99.90;;;;;;5007661;28;20069;-82
2022/01/29 01:35:49;;;;;;;12.55;6.25;;;7.70;99.90;;;;;;5008688;28;20500;-83
2022/01/29 01:38:20;;;;;;;12.35;5.93;;;7.70;99.90;;;;;;5008017;28;20072;-83
2022/01/29 01:40:51;;;;;;;11.70;4.72;;;7.70;99.90;;;;;;5027443;28;20029;-83
2022/01/29 01:43:17;;;;;;;19.20;9.85;;;7.70;99.90;;;;;;5012999;28;20041;-83
2022/01/29 01:45:43;;;;;;;16.85;8.95;;;7.70;99.90;;;;;;5012125;28;20075;-83
2022/01/29 01:48:09;;;;;;;30.60;11.60;;;7.70;99.90;;;;;;5021367;28;20110;-84
2022/01/29 01:50:35;;;;;;;11.43;5.93;;;7.80;99.90;;;;;;4996332;28;20041;-83
2022/01/29 01:53:02;;;;;;;10.52;5.30;;;7.80;99.90;;;;;;5011986;28;20045;-82
2022/01/29 01:55:28;;;;;;;27.55;6.20;;;7.70;99.90;;;;;;5009010;28;20096;-83
2022/01/29 01:57:53;;;;;;;20.50;7.80;;;7.70;99.90;;;;;;4996154;28;20058;-83
2022/01/29 02:00:19;;;;;;;20.25;6.53;;;7.70;99.90;;;;;;4992484;28;20088;-83
2022/01/29 02:02:45;;;;;;;10.75;4.47;;;7.80;99.90;;;;;;5004033;28;20038;-83
2022/01/29 02:05:11;;;;;;;18.02;9.30;;;7.70;99.90;;;;;;5011509;28;20045;-83
2022/01/29 02:07:36;;;;;;;19.15;7.07;;;7.80;99.90;;;;;;4995133;28;20037;-83
2022/01/29 02:10:11;;;;;;;18.20;6.55;;;7.80;99.90;;;;;;4995452;28;20044;-83
2022/01/29 02:12:57;;;;;;;11.40;5.43;;;7.80;99.90;;;;;;5030073;28;20053;-83
2022/01/29 02:15:24;;;;;;;33.42;12.15;;;7.80;99.90;;;;;;5021678;28;20077;-83
2022/01/29 02:17:50;;;;;;;27.15;13.50;;;7.80;99.90;;;;;;4994631;28;20037;-83
2022/01/29 02:20:19;;;;;;;17.80;6.80;;;7.80;99.90;;;;;;5009338;28;20049;-83
2022/01/29 02:22:46;;;;;;;5.70;2.67;;;7.80;99.90;;;;;;4995579;28;20045;-83
2022/01/29 02:25:30;;;;;;;17.60;7.78;;;7.80;99.90;;;;;;5016974;28;20049;-83
2022/01/29 02:28:02;;;;;;;14.63;6.32;;;7.80;99.90;;;;;;4988605;28;20166;-84
2022/01/29 02:30:30;;;;;;;14.65;4.70;;;7.90;99.90;;;;;;4994822;28;20073;-83
2022/01/29 02:33:09;;;;;;;9.07;4.18;;;7.90;99.90;;;;;;5011258;28;20042;-83
2022/01/29 02:35:42;;;;;;;14.32;6.10;;;7.90;99.90;;;;;;5010426;28;20044;-83
2022/01/29 02:38:09;;;;;;;11.90;4.50;;;7.90;99.90;;;;;;5018232;28;20108;-83
2022/01/29 02:40:42;;;;;;;16.63;6.63;;;8.00;99.90;;;;;;5011447;28;20036;-83
2022/01/29 02:43:11;;;;;;;;;;;8.00;99.90;;;;;;5009463;28;20029;-83
2022/01/29 02:45:37;;;;;;;17.85;7.28;;;8.00;99.90;;;;;;5007259;28;19928;-84
2022/01/29 02:48:03;;;;;;;22.83;5.65;;;8.10;99.90;;;;;;5004353;28;20490;-83
2022/01/29 02:50:28;;;;;;;14.65;5.60;;;8.10;99.90;;;;;;5024111;28;20045;-84
2022/01/29 02:52:54;;;;;;;18.88;7.93;;;8.10;99.90;;;;;;5010034;28;20041;-83
2022/01/29 02:55:19;;;;;;;14.05;6.45;;;8.10;99.90;;;;;;5010674;28;20038;-84
2022/01/29 02:57:45;;;;;;;19.50;8.75;;;8.10;99.90;;;;;;5010206;28;20486;-83
2022/01/29 03:00:11;;;;;;;19.98;6.82;;;8.20;99.90;;;;;;5008814;28;20467;-83
2022/01/29 03:02:37;;;;;;;16.40;6.60;;;8.20;99.90;;;;;;4993684;28;20458;-83
2022/01/29 03:05:03;;;;;;;24.55;10.30;;;8.30;99.90;;;;;;4994249;28;20124;-83
2022/01/29 03:07:28;;;;;;;31.88;12.35;;;8.30;99.90;;;;;;5010220;28;20041;-83
2022/01/29 03:09:54;;;;;;;20.13;9.48;;;8.40;99.90;;;;;;4991594;28;20509;-83
2022/01/29 03:12:19;;;;;;;16.42;6.88;;;8.40;99.90;;;;;;5010716;28;20476;-83
2022/01/29 03:14:45;;;;;;;16.65;8.00;;;8.40;99.90;;;;;;5010239;28;20039;-83
2022/01/29 03:17:11;;;;;;;22.77;8.65;;;8.40;99.90;;;;;;5006710;28;20152;-83
2022/01/29 03:19:36;;;;;;;35.22;13.43;;;8.40;99.90;;;;;;5009368;28;20047;-83
2022/01/29 03:22:02;;;;;;;25.52;7.07;;;8.40;99.90;;;;;;5010975;28;20092;-83
2022/01/29 03:24:27;;;;;;;11.27;4.35;;;8.50;99.90;;;;;;5010411;28;20041;-83
2022/01/29 03:26:53;;;;;;;21.38;8.38;;;8.50;99.90;;;;;;4989995;28;20091;-83
2022/01/29 03:29:19;;;;;;;28.42;12.93;;;8.50;99.90;;;;;;4993754;28;20121;-83
2022/01/29 03:31:44;;;;;;;17.67;7.50;;;8.50;99.90;;;;;;5010761;28;20041;-84
2022/01/29 03:34:10;;;;;;;8.30;5.60;;;8.50;99.90;;;;;;4987059;28;20045;-83
2022/01/29 03:36:35;;;;;;;25.63;10.15;;;8.50;99.90;;;;;;4995518;28;20041;-83
2022/01/29 03:39:01;;;;;;;18.10;8.32;;;8.50;99.90;;;;;;5013734;28;20037;-84
2022/01/29 03:41:27;;;;;;;22.13;8.52;;;8.50;99.90;;;;;;5009788;28;20440;-83
2022/01/29 03:43:55;;;;;;;24.15;8.70;;;8.50;99.90;;;;;;5021839;28;20060;-83
2022/01/29 03:46:20;;;;;;;18.38;8.30;;;8.50;99.90;;;;;;5022682;28;20038;-83
2022/01/29 03:48:46;;;;;;;25.38;10.45;;;8.60;99.90;;;;;;5004585;28;20458;-83
2022/01/29 03:51:11;;;;;;;17.63;8.27;;;8.50;99.90;;;;;;5010250;28;20190;-83
2022/01/29 03:53:37;;;;;;;24.90;10.50;;;8.50;99.90;;;;;;5009698;28;20123;-82
2022/01/29 03:56:03;;;;;;;22.30;8.73;;;8.50;99.90;;;;;;5010441;28;20048;-82
2022/01/29 03:58:28;;;;;;;12.30;5.57;;;8.60;99.90;;;;;;4993927;28;20124;-82
2022/01/29 04:00:54;;;;;;;18.40;6.10;;;8.50;99.90;;;;;;5010363;28;20041;-83
2022/01/29 04:03:20;;;;;;;8.43;5.10;;;8.50;99.90;;;;;;5027299;28;20071;-82
2022/01/29 04:05:45;;;;;;;21.10;11.90;;;8.50;99.90;;;;;;5010191;28;20072;-83
2022/01/29 04:08:17;;;;;;;16.90;7.63;;;8.50;99.90;;;;;;5009932;28;20044;-83
2022/01/29 04:10:42;;;;;;;16.65;7.57;;;8.50;99.90;;;;;;4993459;28;20065;-83
2022/01/29 04:13:13;;;;;;;10.18;5.35;;;8.60;99.90;;;;;;5009374;28;20379;-83
2022/01/29 04:15:38;;;;;;;18.70;9.20;;;8.60;99.90;;;;;;5009371;28;20051;-83
2022/01/29 04:18:04;;;;;;;16.45;6.10;;;8.60;99.90;;;;;;4989856;28;20045;-83
2022/01/29 04:20:30;;;;;;;14.30;5.80;;;8.60;99.90;;;;;;4993850;28;20053;-83
2022/01/29 04:22:56;;;;;;;19.73;8.98;;;8.60;99.90;;;;;;5009538;28;20053;-83
2022/01/29 04:25:23;;;;;;;16.17;7.00;;;8.70;99.90;;;;;;5009496;28;20047;-83
2022/01/29 04:27:49;;;;;;;28.63;7.88;;;8.70;99.90;;;;;;5025173;28;20080;-82
2022/01/29 04:30:26;;;;;;;8.55;5.20;;;8.70;99.90;;;;;;5025550;28;20034;-83
2022/01/29 04:35:19;;;;;;;29.85;13.77;;;8.70;99.90;;;;;;5007576;28;20064;-83
2022/01/29 04:37:44;;;;;;;28.23;10.55;;;8.70;99.90;;;;;;4989769;28;20072;-83
2022/01/29 04:40:10;;;;;;;20.70;8.85;;;8.70;99.90;;;;;;5009649;28;20068;-83
2022/01/29 04:42:36;;;;;;;12.07;4.40;;;8.80;99.90;;;;;;5009398;28;20051;-83
2022/01/29 04:45:03;;;;;;;19.08;6.72;;;8.70;99.90;;;;;;5008693;28;20128;-83
2022/01/29 04:47:28;;;;;;;28.30;11.40;;;8.70;99.90;;;;;;4992753;28;20041;-84
2022/01/29 04:49:54;;;;;;;14.45;7.80;;;8.70;99.90;;;;;;5009056;28;20705;-83
2022/01/29 04:52:19;;;;;;;7.43;4.53;;;8.70;99.90;;;;;;4992732;28;20052;-82
2022/01/29 04:54:57;;;;;;;6.78;3.85;;;8.70;99.90;;;;;;5009123;28;20050;-84
2022/01/29 04:57:23;;;;;;;17.30;8.15;;;8.70;99.90;;;;;;5022804;28;20029;-84
2022/01/29 04:59:49;;;;;;;19.80;6.28;;;8.80;99.90;;;;;;4991803;28;20038;-83
2022/01/29 05:02:15;;;;;;;25.70;9.20;;;8.80;99.90;;;;;;5002835;28;20030;-82
2022/01/29 05:04:40;;;;;;;17.13;5.18;;;8.80;99.90;;;;;;5009014;28;20092;-83
2022/01/29 05:07:06;;;;;;;7.20;4.85;;;8.80;99.90;;;;;;4994315;28;20506;-84
2022/01/29 05:09:31;;;;;;;20.83;9.57;;;8.80;99.90;;;;;;4998547;28;20045;-84
2022/01/29 05:11:59;;;;;;;16.98;8.35;;;8.90;99.90;;;;;;4993419;28;20404;-83
2022/01/29 05:14:38;;;;;;;13.90;7.97;;;8.90;99.90;;;;;;5008409;28;20049;-83
2022/01/29 05:28:00;;;;;;;8.82;5.57;;;8.90;99.90;;;;;;5012263;28;20124;-83
2022/01/29 05:30:25;;;;;;;12.45;5.47;;;9.00;99.90;;;;;;5008575;28;20141;-83
2022/01/29 05:32:51;;;;;;;24.02;10.13;;;9.00;99.90;;;;;;4989208;28;20120;-82
2022/01/29 05:35:16;;;;;;;16.83;7.00;;;9.00;99.90;;;;;;5012347;28;20126;-83
2022/01/29 05:37:42;;;;;;;21.23;8.90;;;9.00;99.90;;;;;;5011603;28;20049;-82
2022/01/29 05:40:08;;;;;;;18.20;10.35;;;9.00;99.90;;;;;;5012916;28;20643;-83
2022/01/29 05:42:34;;;;;;;13.57;4.82;;;9.00;99.90;;;;;;4997055;28;20391;-82
2022/01/29 05:44:59;;;;;;;22.73;6.50;;;9.00;99.90;;;;;;5005388;28;20045;-83
2022/01/29 05:47:25;;;;;;;23.15;8.73;;;9.00;99.90;;;;;;4991900;28;20524;-83
2022/01/29 05:49:50;;;;;;;19.95;7.65;;;9.00;99.90;;;;;;5013059;28;20037;-83
2022/01/29 05:52:16;;;;;;;22.83;8.77;;;9.00;99.90;;;;;;4993332;28;20046;-83
2022/01/29 05:54:42;;;;;;;14.32;7.28;;;9.00;99.90;;;;;;4996115;28;20099;-83
2022/01/29 05:57:09;;;;;;;6.97;5.40;;;9.10;99.90;;;;;;5012236;28;20041;-83
2022/01/29 05:59:36;;;;;;;17.65;9.32;;;9.00;99.90;;;;;;4996232;28;20076;-83
2022/01/29 06:02:02;;;;;;;26.08;7.15;;;9.10;99.90;;;;;;5011364;28;20045;-83
2022/01/29 06:04:27;;;;;;;10.50;6.13;;;9.10;99.90;;;;;;5030185;28;20033;-83
2022/01/29 06:06:53;;;;;;;12.63;5.47;;;9.10;99.90;;;;;;5006014;28;20046;-84
2022/01/29 06:09:18;;;;;;;16.10;8.60;;;9.00;99.90;;;;;;5006154;28;20039;-83
2022/01/29 06:11:44;;;;;;;14.25;8.25;;;9.00;99.90;;;;;;5011791;28;20050;-83
2022/01/29 06:14:09;;;;;;;18.83;8.23;;;9.10;99.90;;;;;;5007858;28;20822;-84
2022/01/29 06:16:35;;;;;;;19.60;8.07;;;9.10;99.90;;;;;;4995573;28;20505;-83
2022/01/29 06:19:01;;;;;;;13.85;6.53;;;9.00;99.90;;;;;;5028422;28;20049;-83
2022/01/29 06:21:26;;;;;;;17.48;8.77;;;9.10;99.90;;;;;;4991699;28;20053;-83
2022/01/29 06:23:52;;;;;;;17.88;6.63;;;9.10;99.90;;;;;;5008536;28;20083;-83
2022/01/29 06:26:18;;;;;;;8.23;5.45;;;9.10;99.90;;;;;;5021146;28;20042;-82
2022/01/29 06:28:43;;;;;;;12.32;6.43;;;9.10;99.90;;;;;;4987739;28;20052;-83
2022/01/29 06:31:09;;;;;;;13.85;6.45;;;9.10;99.90;;;;;;4991724;28;20120;-83
2022/01/29 06:33:35;;;;;;;10.30;5.18;;;9.10;99.90;;;;;;5005955;28;20117;-83
2022/01/29 06:36:01;;;;;;;10.02;5.07;;;9.10;99.90;;;;;;4992101;28;20046;-83
2022/01/29 06:38:27;;;;;;;10.07;6.03;;;9.10;99.90;;;;;;5007471;28;20048;-83
2022/01/29 06:40:53;;;;;;;26.17;9.80;;;9.10;99.90;;;;;;5008350;28;20072;-83
2022/01/29 06:43:19;;;;;;;13.68;9.00;;;9.10;99.90;;;;;;5007975;28;20034;-82
2022/01/29 06:45:45;;;;;;;21.45;10.02;;;9.10;99.90;;;;;;4998091;28;20443;-83
2022/01/29 06:48:11;;;;;;;12.70;7.07;;;9.10;99.90;;;;;;5007661;28;20062;-84
2022/01/29 06:50:38;;;;;;;11.77;5.53;;;9.10;99.90;;;;;;5007941;28;20470;-83
2022/01/29 06:53:05;;;;;;;14.32;8.43;;;9.10;99.90;;;;;;4990830;28;20057;-82
2022/01/29 06:55:31;;;;;;;17.30;10.13;;;9.10;99.90;;;;;;5007782;28;20100;-84
2022/01/29 06:57:57;;;;;;;13.68;7.90;;;9.10;99.90;;;;;;4992200;28;20041;-83
2022/01/29 07:00:23;;;;;;;15.23;7.30;;;9.10;99.90;;;;;;4985537;28;20033;-83
2022/01/29 07:02:48;;;;;;;17.77;9.57;;;9.10;99.90;;;;;;4991368;28;20099;-83
2022/01/29 07:05:14;;;;;;;12.80;7.07;;;9.10;99.90;;;;;;4991158;28;20490;-83
2022/01/29 07:07:40;;;;;;;16.42;8.32;;;9.10;99.90;;;;;;4986105;28;20042;-83
2022/01/29 07:10:07;;;;;;;17.48;7.78;;;9.10;99.90;;;;;;5007679;28;20406;-83
2022/01/29 07:12:33;;;;;;;12.93;7.55;;;9.10;99.90;;;;;;5007032;28;20176;-84
2022/01/29 07:14:59;;;;;;;19.65;8.77;;;9.10;99.90;;;;;;5007445;28;20562;-83
2022/01/29 07:17:24;;;;;;;8.52;5.25;;;9.10;99.90;;;;;;5000132;28;20048;-83
2022/01/29 07:19:52;;;;;;;7.45;3.70;;;9.10;99.90;;;;;;5006319;28;20044;-83
2022/01/29 07:22:18;;;;;;;12.60;4.82;;;9.10;99.90;;;;;;5003633;28;20097;-83
2022/01/29 07:24:46;;;;;;;14.82;7.93;;;9.10;99.90;;;;;;5003603;28;20206;-82
2022/01/29 07:27:12;;;;;;;8.45;4.07;;;9.10;99.90;;;;;;5007320;28;20062;-83
2022/01/29 07:29:38;;;;;;;11.30;6.63;;;9.10;99.90;;;;;;4990278;28;20037;-82
2022/01/29 07:32:04;;;;;;;11.95;6.88;;;9.10;99.90;;;;;;5013273;28;20401;-83
2022/01/29 07:34:29;;;;;;;14.88;6.55;;;9.10;99.90;;;;;;5006677;28;20096;-82
2022/01/29 07:36:56;;;;;;;13.30;6.32;;;9.10;99.90;;;;;;5022815;28;20057;-83
2022/01/29 07:39:23;;;;;;;11.48;5.40;;;9.10;99.90;;;;;;5007343;28;20728;-83
2022/01/29 07:41:49;;;;;;;14.40;6.22;;;9.10;99.90;;;;;;5023044;28;20403;-83
2022/01/29 07:44:15;;;;;;;9.13;4.82;;;9.10;99.90;;;;;;5007579;28;20037;-82
2022/01/29 07:46:41;;;;;;;14.77;4.72;;;9.10;99.90;;;;;;4987648;28;20148;-83
2022/01/29 07:49:08;;;;;;;13.32;6.03;;;9.20;99.90;;;;;;5012252;28;20046;-82
2022/01/29 07:51:33;;;;;;;22.65;8.82;;;9.20;99.90;;;;;;5004008;28;20053;-83
2022/01/29 07:53:59;;;;;;;8.82;5.05;;;9.20;99.90;;;;;;5005784;28;20054;-83
2022/01/29 07:56:25;;;;;;;11.75;5.38;;;9.20;99.90;;;;;;4983322;28;20041;-83
2022/01/29 07:58:51;;;;;;;18.58;7.65;;;9.20;99.90;;;;;;5019084;28;20037;-83
2022/01/29 08:01:18;;;;;;;10.68;5.22;;;9.20;99.90;;;;;;4990732;28;20538;-83
2022/01/29 08:03:46;;;;;;;12.85;6.00;;;9.10;99.90;;;;;;5007226;28;20116;-83
2022/01/29 08:06:13;;;;;;;8.60;4.00;;;9.20;99.90;;;;;;5005915;28;20068;-83
2022/01/29 08:08:39;;;;;;;14.15;6.90;;;9.20;99.90;;;;;;4989235;28;20041;-83
2022/01/29 08:11:04;;;;;;;4.15;3.22;;;9.20;99.90;;;;;;4989245;28;20466;-83
2022/01/29 08:13:30;;;;;;;4.72;3.35;;;9.20;99.90;;;;;;4986496;28;20140;-83
2022/01/29 08:15:55;;;;;;;7.13;4.30;;;9.20;99.90;;;;;;4999184;28;20038;-83
2022/01/29 08:18:21;;;;;;;14.48;6.88;;;9.20;99.90;;;;;;5005672;28;20479;-83
2022/01/29 08:20:46;;;;;;;2.92;2.25;;;9.30;99.90;;;;;;4988040;28;20057;-83
2022/01/29 08:23:12;;;;;;;8.93;2.40;;;9.40;99.90;;;;;;4981094;28;20038;-82
2022/01/29 08:25:38;;;;;;;12.20;6.90;;;9.30;99.90;;;;;;4989773;28;20120;-83
2022/01/29 08:28:05;;;;;;;6.95;2.08;;;9.40;99.90;;;;;;5005986;28;20108;-82
2022/01/29 08:30:31;;;;;;;1.73;1.33;;;9.40;99.90;;;;;;4989825;28;20046;-82
2022/01/29 08:32:57;;;;;;;6.45;2.75;;;9.40;99.90;;;;;;5004004;28;20061;-82
2022/01/29 08:35:23;;;;;;;8.25;3.45;;;9.40;99.90;;;;;;5006312;28;20096;-83
2022/01/29 08:37:49;;;;;;;11.32;5.88;;;9.40;99.90;;;;;;5005459;28;20038;-83
2022/01/29 08:40:14;;;;;;;3.22;2.38;;;9.40;99.90;;;;;;4990054;28;20042;-82
2022/01/29 08:42:40;;;;;;;15.63;5.38;;;9.40;99.90;;;;;;5005178;28;20041;-83
2022/01/29 08:45:08;;;;;;;7.97;4.13;;;9.40;99.90;;;;;;5004106;28;20033;-83
2022/01/29 08:47:33;;;;;;;8.10;4.22;;;9.40;99.90;;;;;;5014541;28;20050;-83
2022/01/29 08:50:03;;;;;;;5.53;2.45;;;9.40;99.90;;;;;;4997844;28;20084;-83
2022/01/29 08:52:29;;;;;;;3.42;2.30;;;9.50;99.90;;;;;;5009716;28;20474;-83
2022/01/29 08:54:55;;;;;;;6.07;2.95;;;9.50;99.90;;;;;;4990774;28;20196;-83
2022/01/29 08:57:21;;;;;;;6.30;3.00;;;9.50;99.90;;;;;;4992991;28;20133;-83
2022/01/29 08:59:46;;;;;;;11.43;4.22;;;9.50;99.90;;;;;;5009183;28;20044;-83
2022/01/29 09:02:12;;;;;;;10.32;3.42;;;9.60;99.90;;;;;;4992893;28;20038;-82
2022/01/29 09:04:38;;;;;;;5.40;2.80;;;9.60;99.90;;;;;;4991455;28;20084;-83
2022/01/29 09:07:03;;;;;;;8.80;3.75;;;9.60;99.90;;;;;;4984846;28;20461;-83
2022/01/29 09:09:29;;;;;;;5.75;2.25;;;9.70;99.90;;;;;;5008489;28;20391;-83
2022/01/29 09:11:54;;;;;;;10.52;5.10;;;9.60;99.90;;;;;;4994803;28;20133;-83
2022/01/29 09:14:20;;;;;;;7.70;3.17;;;9.70;99.90;;;;;;4986893;28;20100;-83
2022/01/29 09:16:46;;;;;;;10.93;3.60;;;9.70;99.90;;;;;;5002917;28;20069;-83
2022/01/29 09:19:12;;;;;;;6.53;3.55;;;9.80;99.90;;;;;;5024379;28;20038;-83
2022/01/29 09:21:38;;;;;;;6.05;2.60;;;9.80;99.90;;;;;;4991837;28;20572;-83
2022/01/29 09:24:03;;;;;;;7.55;3.63;;;9.90;99.90;;;;;;4992155;28;20052;-83
2022/01/29 09:26:29;;;;;;;6.10;2.63;;;9.90;99.90;;;;;;5008256;28;20486;-83
2022/01/29 09:28:55;;;;;;;4.70;2.67;;;9.90;99.90;;;;;;5008627;28;20041;-83
2022/01/29 09:31:21;;;;;;;6.85;2.90;;;9.90;99.90;;;;;;5005081;28;20133;-83
2022/01/29 09:33:47;;;;;;;16.75;3.35;;;10.00;99.90;;;;;;4991360;28;20125;-83
2022/01/29 09:36:13;;;;;;;7.97;2.95;;;9.90;99.90;;;;;;5003774;28;20502;-83
2022/01/29 09:38:38;;;;;;;7.65;2.38;;;10.00;99.90;;;;;;4992319;28;20042;-83
2022/01/29 09:41:05;;;;;;;7.40;2.95;;;10.00;99.90;;;;;;4999241;28;20033;-83
2022/01/29 09:43:32;;;;;;;7.18;2.95;;;10.10;99.90;;;;;;4987910;28;20092;-84
2022/01/29 09:45:58;;;;;;;20.25;3.47;;;10.10;99.90;;;;;;4996823;28;20458;-83
2022/01/29 09:48:28;;;;;;;10.77;3.47;;;10.10;99.90;;;;;;4992714;28;20422;-83
2022/01/29 09:50:54;;;;;;;5.38;2.65;;;10.20;99.90;;;;;;4996509;28;20128;-83
2022/01/29 09:53:20;;;;;;;4.78;2.40;;;10.20;99.90;;;;;;5013406;28;20056;-82
2022/01/29 09:55:47;;;;;;;8.07;2.45;;;10.20;99.90;;;;;;5018840;28;20480;-83
2022/01/29 09:58:13;;;;;;;2.88;1.33;;;10.20;99.90;;;;;;4991559;28;20073;-82
2022/01/29 10:00:39;;;;;;;9.18;3.55;;;10.20;99.90;;;;;;4991645;28;20447;-82
2022/01/29 10:03:10;;;;;;;8.30;3.13;;;10.20;99.90;;;;;;4999078;28;20034;-82
2022/01/29 10:05:48;;;;;;;4.68;2.50;;;10.20;99.90;;;;;;5018993;28;20049;-80
2022/01/29 10:08:14;;;;;;;6.53;1.67;;;10.20;99.90;;;;;;4985340;28;20052;-81
2022/01/29 10:10:42;;;;;;;5.55;1.20;;;10.20;99.90;;;;;;5020732;28;20121;-80
2022/01/29 10:13:37;;;;;;;10.65;1.85;;;10.20;99.90;;;;;;4987531;28;20045;-81
2022/01/29 10:16:18;;;;;;;8.95;2.47;;;10.30;99.90;;;;;;5020275;28;20123;-81
2022/01/29 10:18:47;;;;;;;10.35;2.40;;;10.40;99.90;;;;;;4990012;28;20045;-81
2022/01/29 10:21:17;;;;;;;7.75;2.80;;;10.40;99.90;;;;;;5006842;28;20594;-80
2022/01/29 10:23:44;;;;;;;4.05;1.85;;;10.50;99.90;;;;;;5002881;28;22682;-80
2022/01/29 10:26:10;;;;;;;15.50;2.50;;;10.50;99.90;;;;;;5002313;28;20044;-82
2022/01/29 10:28:38;;;;;;;8.52;2.30;;;10.50;99.90;;;;;;4988113;28;20041;-84
2022/01/29 10:31:05;;;;;;;6.95;2.83;;;10.50;99.90;;;;;;5002491;28;20033;-83
2022/01/29 10:33:36;;;;;;;12.82;2.83;;;10.50;99.90;;;;;;5004379;28;20088;-83
2022/01/29 10:36:03;;;;;;;5.88;2.28;;;10.50;99.90;;;;;;5021669;28;20045;-81
2022/01/29 10:38:46;;;;;;;9.07;2.75;;;10.50;99.90;;;;;;5006351;28;20036;-81
2022/01/29 10:41:26;;;;;;;4.03;1.55;;;10.60;99.90;;;;;;5004366;28;20042;-81
2022/01/29 10:44:22;;;;;;;5.57;1.95;;;10.50;99.90;;;;;;4988675;28;20034;-80
2022/01/29 10:46:55;;;;;;;10.18;2.20;;;10.60;99.90;;;;;;5000681;28;20175;-80
2022/01/29 10:49:22;;;;;;;3.22;1.48;;;10.60;99.90;;;;;;5020444;28;20052;-81
2022/01/29 10:52:00;;;;;;;5.10;2.30;;;10.70;99.90;;;;;;4999719;28;20047;-81
2022/01/29 10:54:26;;;;;;;4.63;1.83;;;10.70;99.90;;;;;;5003901;28;20545;-81
2022/01/29 10:56:57;;;;;;;5.03;1.98;;;10.70;99.90;;;;;;5001678;28;20042;-81
2022/01/29 10:59:25;;;;;;;8.50;2.03;;;10.70;99.90;;;;;;5000254;28;20040;-80
2022/01/29 11:01:59;;;;;;;9.38;3.05;;;10.70;99.90;;;;;;5001750;28;20044;-81
2022/01/29 11:04:28;;;;;;;4.82;2.20;;;10.70;99.90;;;;;;4992236;28;20042;-80
2022/01/29 11:06:55;;;;;;;7.95;2.92;;;10.60;99.90;;;;;;5017608;28;20041;-80
2022/01/29 11:09:21;;;;;;;18.30;3.13;;;10.70;99.90;;;;;;5007113;28;20046;-80
2022/01/29 11:11:48;;;;;;;6.25;1.77;;;10.70;99.90;;;;;;4988100;28;20046;-81
2022/01/29 11:14:17;;;;;;;7.53;2.40;;;10.70;99.90;;;;;;5006638;28;20181;-80
2022/01/29 11:16:44;;;;;;;9.05;2.08;;;10.70;99.90;;;;;;5005072;28;20096;-81
2022/01/29 11:19:11;;;;;;;6.88;1.90;;;10.70;99.90;;;;;;5006275;28;20038;-81
2022/01/29 11:21:37;;;;;;;6.38;2.08;;;10.70;99.90;;;;;;5001459;28;20497;-81
2022/01/29 11:24:06;;;;;;;4.88;1.75;;;10.70;99.90;;;;;;5005062;28;20038;-81
2022/01/29 11:26:33;;;;;;;10.07;3.40;;;10.80;99.90;;;;;;5005994;28;20990;-80
2022/01/29 11:29:30;;;;;;;9.27;3.45;;;10.70;99.90;;;;;;4988052;28;20034;-80
2022/01/29 11:32:17;;;;;;;7.90;2.17;;;10.70;99.90;;;;;;4989646;28;20081;-81
2022/01/29 11:35:14;;;;;;;6.20;2.22;;;10.70;99.90;;;;;;5005377;28;20093;-81
2022/01/29 11:37:39;;;;;;;2.78;1.25;;;10.70;99.90;;;;;;5004503;28;20041;-81
2022/01/29 11:40:19;;;;;;;11.57;2.70;;;10.70;99.90;;;;;;4984428;28;20041;-81
2022/01/29 11:43:03;;;;;;;16.75;2.83;;;10.70;99.90;;;;;;5020690;28;20038;-81
2022/01/29 11:45:44;;;;;;;4.65;2.10;;;10.80;99.90;;;;;;4985377;28;20048;-81
2022/01/29 11:48:25;;;;;;;5.18;1.88;;;10.90;99.90;;;;;;5020764;28;20479;-81
2022/01/29 11:50:53;;;;;;;4.20;1.85;;;10.90;99.90;;;;;;5015803;28;20053;-81
2022/01/29 11:53:19;;;;;;;5.75;1.50;;;11.00;99.90;;;;;;5003799;28;20530;-81
2022/01/29 11:55:51;;;;;;;4.68;1.40;;;11.00;99.90;;;;;;4988327;28;20057;-81
2022/01/29 11:58:26;;;;;;;8.02;2.45;;;11.00;99.90;;;;;;4990761;28;20407;-80
2022/01/29 12:00:57;;;;;;;8.43;1.90;;;11.00;99.90;;;;;;5002422;28;20041;-82
2022/01/29 12:03:35;;;;;;;8.07;2.60;;;11.10;99.90;;;;;;5001450;28;20044;-82
2022/01/29 12:09:07;;;;;;;6.18;1.83;;;11.10;99.90;;;;;;4999098;28;20394;-82
2022/01/29 12:11:41;;;;;;;5.85;1.95;;;11.10;99.90;;;;;;5003160;28;20045;-82
2022/01/29 12:14:27;;;;;;;6.95;1.95;;;11.20;99.90;;;;;;4983566;28;20376;-81
2022/01/29 12:16:55;;;;;;;4.30;1.27;;;11.20;99.90;;;;;;4981979;28;20050;-81
2022/01/29 12:19:40;;;;;;;10.30;1.88;;;11.20;99.90;;;;;;4982414;28;20463;-81
2022/01/29 12:22:20;;;;;;;10.07;2.42;;;11.20;99.90;;;;;;5000889;28;20046;-82
2022/01/29 12:24:55;;;;;;;10.02;2.25;;;11.30;99.90;;;;;;4983240;28;20525;-81
2022/01/29 12:27:22;;;;;;;7.38;1.90;;;11.30;99.90;;;;;;4998793;28;20044;-82
2022/01/29 12:29:48;;;;;;;15.38;1.65;;;11.30;99.90;;;;;;4985051;28;20049;-81
2022/01/29 12:32:14;;;;;;;7.85;1.88;;;11.30;99.90;;;;;;5016258;28;20045;-81
2022/01/29 12:34:39;;;;;;;4.50;2.03;;;11.40;99.90;;;;;;4985388;28;20136;-81
2022/01/29 12:37:11;;;;;;;7.75;2.17;;;11.40;99.90;;;;;;5000668;28;20045;-81
2022/01/29 12:39:39;;;;;;;6.63;2.13;;;11.40;99.90;;;;;;5003499;28;20483;-82
2022/01/29 12:42:13;;;;;;;6.75;1.95;;;11.50;99.90;;;;;;4995841;28;20042;-82
2022/01/29 12:44:52;;;;;;;5.07;1.50;;;11.50;99.90;;;;;;4981664;28;20030;-82
2022/01/29 12:47:32;;;;;;;3.85;1.42;;;11.50;99.90;;;;;;5016389;28;20049;-83
2022/01/29 12:49:58;;;;;;;6.82;2.03;;;11.60;99.90;;;;;;5004691;28;20107;-81
2022/01/29 12:52:25;;;;;;;16.58;2.50;;;11.50;99.90;;;;;;4995240;28;20038;-81
2022/01/29 12:54:59;;;;;;;21.08;2.17;;;11.50;99.90;;;;;;4996262;28;20057;-82
2022/01/29 12:57:46;;;;;;;8.68;2.05;;;11.50;99.90;;;;;;5004484;28;20445;-82
2022/01/29 13:00:15;;;;;;;9.55;2.58;;;11.50;99.90;;;;;;5002098;28;20125;-82
2022/01/29 13:02:41;;;;;;;5.20;2.03;;;11.50;99.90;;;;;;5005142;28;20081;-81
2022/01/29 13:05:07;;;;;;;5.68;1.33;;;11.50;99.90;;;;;;4987110;28;20053;-81
2022/01/29 13:07:35;;;;;;;6.88;1.95;;;11.40;99.90;;;;;;4987581;28;20088;-81